• Join FlightAware (Why Join?)
  • Login
  • US Flag 
10:21PM EST


 

Airport Tracker/Info


-or-


 

Live Flight TrackerFlight Track Log ✈ AIP5009 ✈ 19-Oct-2013 ✈ KMSO - KBIL

Flight Track Log - Related Links

Times and Time Zones

All times are in EDT time to prevent confusion due to time zone crossing. See the AIP5009 flight status page for this flight to view local times or setup timezone preferences in your user account.

Time Position Orientation Groundspeed Altitude Reporting Facility
EDT Latitude Longitude Course Direction KTS MPH feet Rate Location/Type
05:03AM 46.9306 -114.1169 107° East 195 224 4,100  Level Salt Lake Center
05:04AM 46.9050 -114.1364 207° Southwest 146 168 7,000 2,700 Climbing Salt Lake Center
05:05AM 46.8828 -114.0694 116° Southeast 176 203 9,600 2,400 Climbing Salt Lake Center
05:06AM 46.8689 -113.9953 105° East 188 216 11,900 2,220 Climbing Salt Lake Center
05:07AM 46.8500 -113.9208 110° East 194 223 14,100 2,040 Climbing Salt Lake Center
05:08AM 46.8170 -113.5224 107° East  Level Estimated
05:08AM 46.8375 -113.8431 103° East 197 227 16,100  Level Salt Lake Center
05:09AM 46.8206 -113.7647 108° East 203 234 17,800 1,500 Climbing Salt Lake Center
05:10AM 46.8039 -113.6817 106° East 212 244 19,100 1,260 Climbing Salt Lake Center
05:11AM 46.7908 -113.6081 104° East 224 258 20,400 1,380 Climbing Salt Lake Center
05:12AM 46.7742 -113.5219 106° East 222 255 21,900 1,200 Climbing Salt Lake Center
05:13AM 46.7653 -113.4342 98° East 220 253 22,900 1,140 Climbing Salt Lake Center
05:14AM 46.7536 -113.3417 100° East 231 266 24,200 960 Climbing Salt Lake Center
05:15AM 46.7367 -113.2447 104° East 248 285 24,900 360 Climbing Salt Lake Center
05:16AM 46.7119 -113.1408 109° East 270 311 25,000  Climbing Salt Lake Center
05:17AM 46.6925 -113.0283 104° East 285 328 25,000  Level Salt Lake Center
05:18AM 46.6753 -112.9111 102° East 296 341 25,000  Level Salt Lake Center
05:19AM 46.6597 -112.7933 101° East 298 343 25,000 -60 Level Salt Lake Center
05:20AM 46.6353 -112.6547 104° East 297 342 24,900  Descending Salt Lake Center
05:21AM 46.6067 -112.5411 110° East 299 344 25,000 60 Climbing Salt Lake Center
05:22AM 46.5831 -112.4275 107° East 296 341 25,100  Climbing Salt Lake Center
05:23AM 46.5575 -112.3153 108° East 293 337 25,000 -60 Descending Salt Lake Center
05:24AM 46.5389 -112.2014 103° East 292 336 25,000  Level Salt Lake Center
05:25AM 46.5200 -112.0858 103° East 293 337 25,100  Climbing Salt Lake Center
05:26AM 46.4981 -111.9733 106° East 293 337 25,100  Level Salt Lake Center
05:27AM 46.4700 -111.8592 110° East 300 345 25,100 -60 Level Salt Lake Center
05:28AM 46.4481 -111.7442 105° East 298 343 25,000 -60 Descending Salt Lake Center
05:29AM 46.4358 -111.6319 99° East 288 331 25,000 -60 Level Salt Lake Center
05:30AM 46.4150 -111.5153 104° East 294 338 24,900 -60 Descending Salt Lake Center
05:31AM 46.4011 -111.3992 100° East 290 334 24,900 60 Level Salt Lake Center
05:32AM 46.3797 -111.2808 105° East 298 343 25,100 60 Climbing Salt Lake Center
05:33AM 46.3564 -111.1736 107° East 297 342 25,100  Level Salt Lake Center
05:34AM 46.3200 -111.0631 115° Southeast 301 346 25,100  Level Salt Lake Center
05:35AM 46.3022 -110.9447 102° East 295 339 25,200  Climbing Salt Lake Center
05:36AM 46.2806 -110.8325 106° East 292 336 25,100 -60 Descending Salt Lake Center
05:37AM 46.2553 -110.7164 107° East 300 345 25,100 -180 Level Salt Lake Center
05:38AM 46.2300 -110.5997 107° East 304 350 24,800 -780 Descending Salt Lake Center
05:39AM 46.2086 -110.4758 104° East 315 362 23,600 -960 Descending Salt Lake Center
05:40AM 46.1833 -110.3489 106° East 328 377 22,900 -900 Descending Salt Lake Center
05:41AM 46.1611 -110.2228 104° East 326 375 21,900 -1,140 Descending Salt Lake Center
05:42AM 46.1381 -110.0958 105° East 328 377 20,700 -1,080 Descending Salt Lake Center
05:43AM 46.1150 -109.9658 104° East 333 383 19,800 -840 Descending Salt Lake Center
05:44AM 46.0922 -109.8397 105° East 329 379 19,100 -720 Descending Salt Lake Center
05:45AM 46.0669 -109.7181 107° East 326 375 18,400 -720 Descending Salt Lake Center
05:46AM 46.0456 -109.5967 104° East 318 366 17,700 -660 Descending Salt Lake Center
05:47AM 46.0336 -109.4750 98° East 311 358 17,100 -780 Descending Salt Lake Center
05:48AM 46.0100 -109.3558 106° East 315 362 16,200 -900 Descending Salt Lake Center
05:49AM 45.9828 -109.2381 108° East 313 360 15,400 -900 Descending Salt Lake Center
05:50AM 45.9553 -109.1086 107° East 316 364 14,500 -1,380 Descending Salt Lake Center
05:51AM 45.9308 -108.9911 107° East 312 359 12,700 -1,800 Descending Salt Lake Center
05:52AM 45.9061 -108.8747 107° East 309 356 11,000 -1,920 Descending Salt Lake Center
05:53AM 45.8814 -108.7622 107° East 303 349 8,900 -2,220 Descending Salt Lake Center
05:54AM 45.8575 -108.6500 107° East 299 344 6,600 -1,860 Descending Salt Lake Center
05:55AM 45.8422 -108.5483 102° East 265 305 5,200 -1,260 Descending Salt Lake Center
05:56AM 45.8136 -108.5150 141° Southeast 172 198 4,100 -900 Descending Salt Lake Center
05:57AM 45.8086 -108.5550 260° West 112 129 3,500 -600 Descending Salt Lake Center
05:59AM 45.8077 -108.5429 110° East  Level Estimated